San Lorenzo, California
Current Conditions -  °F | °C
As of 1:40 AM on Saturday 20 Dec 2014 (Local Time) from KHWD Reporting Station
Overcast Overcast  
Wind Chill: 57°   Ceiling: 1000
Heat Index: 57°   Visibility: 10mi
Dew Point: 55°   Wind: 6mph
Humidity: 94%   Direction: 160°SSE
Pressure: 30.13"   Gusts: NA
Location:  37.68°N, 122.12°W
Report Text: KHWD 200940Z 16005KT 10SM SCT005 BKN010 OVC025 14/13 A3013 RMK AO2 $
Loading
Personal Weather Stations






























Interactive Weather Map New forecast layout! Learn more

10-Day Weather Forecast

Advertisements
Track Severe Weather on mobile